sensor_id;sensor_type;location;lat;lon;timestamp;temperature;humidity
59651;DHT22;45954;49.768;8.636;2023-05-07T00:00:43;17.60;99.90
59651;DHT22;45954;49.768;8.636;2023-05-07T00:03:09;17.60;99.90
59651;DHT22;45954;49.768;8.636;2023-05-07T00:05:35;17.60;99.90
59651;DHT22;45954;49.768;8.636;2023-05-07T00:08:01;17.60;99.90
59651;DHT22;45954;49.768;8.636;2023-05-07T00:10:27;17.60;99.90
59651;DHT22;45954;49.768;8.636;2023-05-07T00:12:53;17.50;99.90
59651;DHT22;45954;49.768;8.636;2023-05-07T00:15:19;17.70;99.90
59651;DHT22;45954;49.768;8.636;2023-05-07T00:17:45;17.70;99.90
59651;DHT22;45954;49.768;8.636;2023-05-07T00:20:11;17.60;99.90
59651;DHT22;45954;49.768;8.636;2023-05-07T00:22:37;17.60;99.90
59651;DHT22;45954;49.768;8.636;2023-05-07T00:25:03;17.60;99.90
59651;DHT22;45954;49.768;8.636;2023-05-07T00:27:30;17.40;99.90
59651;DHT22;45954;49.768;8.636;2023-05-07T00:29:56;17.40;99.90
59651;DHT22;45954;49.768;8.636;2023-05-07T00:32:22;17.50;99.90
59651;DHT22;45954;49.768;8.636;2023-05-07T00:34:48;17.60;99.90
59651;DHT22;45954;49.768;8.636;2023-05-07T00:37:13;17.60;99.90
59651;DHT22;45954;49.768;8.636;2023-05-07T00:39:39;17.60;99.90
59651;DHT22;45954;49.768;8.636;2023-05-07T00:42:05;17.50;99.90
59651;DHT22;45954;49.768;8.636;2023-05-07T00:44:31;17.40;99.90
59651;DHT22;45954;49.768;8.636;2023-05-07T00:46:57;17.50;99.90
59651;DHT22;45954;49.768;8.636;2023-05-07T00:49:39;17.60;99.90
59651;DHT22;45954;49.768;8.636;2023-05-07T00:52:11;17.40;99.90
59651;DHT22;45954;49.768;8.636;2023-05-07T00:54:37;17.60;99.90
59651;DHT22;45954;49.768;8.636;2023-05-07T00:57:04;17.50;99.90
59651;DHT22;45954;49.768;8.636;2023-05-07T00:59:32;17.60;99.90
59651;DHT22;45954;49.768;8.636;2023-05-07T01:01:59;17.60;99.90
59651;DHT22;45954;49.768;8.636;2023-05-07T01:04:26;17.50;99.90
59651;DHT22;45954;49.768;8.636;2023-05-07T01:06:55;17.50;99.90
59651;DHT22;45954;49.768;8.636;2023-05-07T01:09:23;17.50;99.90
59651;DHT22;45954;49.768;8.636;2023-05-07T01:11:50;17.70;99.90
59651;DHT22;45954;49.768;8.636;2023-05-07T01:14:18;17.70;99.90
59651;DHT22;45954;49.768;8.636;2023-05-07T01:16:46;17.60;99.90
59651;DHT22;45954;49.768;8.636;2023-05-07T01:19:18;17.60;99.90
59651;DHT22;45954;49.768;8.636;2023-05-07T01:21:47;17.70;99.90
59651;DHT22;45954;49.768;8.636;2023-05-07T01:24:14;17.60;99.90
59651;DHT22;45954;49.768;8.636;2023-05-07T01:26:43;17.50;99.90
59651;DHT22;45954;49.768;8.636;2023-05-07T01:29:10;17.40;99.90
59651;DHT22;45954;49.768;8.636;2023-05-07T01:31:37;17.40;99.90
59651;DHT22;45954;49.768;8.636;2023-05-07T01:34:07;17.40;99.90
59651;DHT22;45954;49.768;8.636;2023-05-07T01:36:34;17.50;99.90
59651;DHT22;45954;49.768;8.636;2023-05-07T01:39:03;17.40;99.90
59651;DHT22;45954;49.768;8.636;2023-05-07T01:41:29;17.30;99.90
59651;DHT22;45954;49.768;8.636;2023-05-07T01:43:58;17.10;99.90
59651;DHT22;45954;49.768;8.636;2023-05-07T01:46:26;16.90;99.90
59651;DHT22;45954;49.768;8.636;2023-05-07T01:48:52;16.80;99.90
59651;DHT22;45954;49.768;8.636;2023-05-07T01:51:18;16.70;99.90
59651;DHT22;45954;49.768;8.636;2023-05-07T01:53:45;16.70;99.90
59651;DHT22;45954;49.768;8.636;2023-05-07T01:56:17;16.60;99.90
59651;DHT22;45954;49.768;8.636;2023-05-07T01:58:44;16.70;99.90
59651;DHT22;45954;49.768;8.636;2023-05-07T02:01:13;16.70;99.90
59651;DHT22;45954;49.768;8.636;2023-05-07T02:03:39;16.70;99.90
59651;DHT22;45954;49.768;8.636;2023-05-07T02:06:05;16.50;99.90
59651;DHT22;45954;49.768;8.636;2023-05-07T02:08:31;16.40;99.90
59651;DHT22;45954;49.768;8.636;2023-05-07T02:10:57;16.40;99.90
59651;DHT22;45954;49.768;8.636;2023-05-07T02:13:23;16.20;99.90
59651;DHT22;45954;49.768;8.636;2023-05-07T02:15:50;16.20;99.90
59651;DHT22;45954;49.768;8.636;2023-05-07T02:18:16;16.00;99.90
59651;DHT22;45954;49.768;8.636;2023-05-07T02:20:42;15.90;99.90
59651;DHT22;45954;49.768;8.636;2023-05-07T02:23:08;16.00;99.90
59651;DHT22;45954;49.768;8.636;2023-05-07T02:25:34;16.00;99.90
59651;DHT22;45954;49.768;8.636;2023-05-07T02:28:00;15.90;99.90
59651;DHT22;45954;49.768;8.636;2023-05-07T02:30:26;16.00;99.90
59651;DHT22;45954;49.768;8.636;2023-05-07T02:32:52;15.80;99.90
59651;DHT22;45954;49.768;8.636;2023-05-07T02:35:18;15.70;99.90
59651;DHT22;45954;49.768;8.636;2023-05-07T02:37:44;15.60;99.90
59651;DHT22;45954;49.768;8.636;2023-05-07T02:40:10;15.60;99.90
59651;DHT22;45954;49.768;8.636;2023-05-07T02:42:37;15.30;99.90
59651;DHT22;45954;49.768;8.636;2023-05-07T02:45:03;15.20;99.90
59651;DHT22;45954;49.768;8.636;2023-05-07T02:47:29;15.00;99.90
59651;DHT22;45954;49.768;8.636;2023-05-07T02:49:55;14.80;99.90
59651;DHT22;45954;49.768;8.636;2023-05-07T02:52:21;14.90;99.90
59651;DHT22;45954;49.768;8.636;2023-05-07T02:54:47;15.10;99.90
59651;DHT22;45954;49.768;8.636;2023-05-07T02:57:14;15.30;99.90
59651;DHT22;45954;49.768;8.636;2023-05-07T02:59:40;15.30;99.90
59651;DHT22;45954;49.768;8.636;2023-05-07T03:02:06;15.30;99.90
59651;DHT22;45954;49.768;8.636;2023-05-07T03:04:32;15.50;99.90
59651;DHT22;45954;49.768;8.636;2023-05-07T03:06:58;15.50;99.90
59651;DHT22;45954;49.768;8.636;2023-05-07T03:09:24;15.50;99.90
59651;DHT22;45954;49.768;8.636;2023-05-07T03:11:50;15.40;99.90
59651;DHT22;45954;49.768;8.636;2023-05-07T03:14:15;15.50;99.90
59651;DHT22;45954;49.768;8.636;2023-05-07T03:16:41;15.50;99.90
59651;DHT22;45954;49.768;8.636;2023-05-07T03:19:07;15.40;99.90
59651;DHT22;45954;49.768;8.636;2023-05-07T03:21:33;15.40;99.90
59651;DHT22;45954;49.768;8.636;2023-05-07T03:24:00;15.50;99.90
59651;DHT22;45954;49.768;8.636;2023-05-07T03:26:26;15.40;99.90
59651;DHT22;45954;49.768;8.636;2023-05-07T03:28:52;15.30;99.90
59651;DHT22;45954;49.768;8.636;2023-05-07T03:31:18;15.10;99.90
59651;DHT22;45954;49.768;8.636;2023-05-07T03:33:52;15.10;99.90
59651;DHT22;45954;49.768;8.636;2023-05-07T03:36:18;15.30;99.90
59651;DHT22;45954;49.768;8.636;2023-05-07T03:38:44;15.10;99.90
59651;DHT22;45954;49.768;8.636;2023-05-07T03:41:10;15.10;99.90
59651;DHT22;45954;49.768;8.636;2023-05-07T03:43:35;15.20;99.90
59651;DHT22;45954;49.768;8.636;2023-05-07T03:46:01;15.30;99.90
59651;DHT22;45954;49.768;8.636;2023-05-07T03:48:27;15.30;99.90
59651;DHT22;45954;49.768;8.636;2023-05-07T03:50:53;15.50;99.90
59651;DHT22;45954;49.768;8.636;2023-05-07T03:53:19;15.50;99.90
59651;DHT22;45954;49.768;8.636;2023-05-07T03:55:45;15.70;99.90
59651;DHT22;45954;49.768;8.636;2023-05-07T03:58:11;15.60;99.90
59651;DHT22;45954;49.768;8.636;2023-05-07T04:00:36;15.70;99.90
59651;DHT22;45954;49.768;8.636;2023-05-07T04:03:04;15.70;99.90
59651;DHT22;45954;49.768;8.636;2023-05-07T04:05:31;15.80;99.90
59651;DHT22;45954;49.768;8.636;2023-05-07T04:08:00;15.70;99.90
59651;DHT22;45954;49.768;8.636;2023-05-07T04:10:26;15.70;99.90
59651;DHT22;45954;49.768;8.636;2023-05-07T04:12:54;15.80;99.90
59651;DHT22;45954;49.768;8.636;2023-05-07T04:15:19;15.70;99.90
59651;DHT22;45954;49.768;8.636;2023-05-07T04:17:45;15.70;99.90
59651;DHT22;45954;49.768;8.636;2023-05-07T04:20:15;15.80;99.90
59651;DHT22;45954;49.768;8.636;2023-05-07T04:22:42;15.90;99.90
59651;DHT22;45954;49.768;8.636;2023-05-07T04:25:08;15.80;99.90
59651;DHT22;45954;49.768;8.636;2023-05-07T04:27:35;15.80;99.90
59651;DHT22;45954;49.768;8.636;2023-05-07T04:30:02;15.70;99.90
59651;DHT22;45954;49.768;8.636;2023-05-07T04:32:29;15.70;99.90
59651;DHT22;45954;49.768;8.636;2023-05-07T04:34:56;15.80;99.90
59651;DHT22;45954;49.768;8.636;2023-05-07T04:37:22;16.00;99.90
59651;DHT22;45954;49.768;8.636;2023-05-07T04:39:48;16.10;99.90
59651;DHT22;45954;49.768;8.636;2023-05-07T04:42:17;16.20;99.90
59651;DHT22;45954;49.768;8.636;2023-05-07T04:44:44;16.30;99.90
59651;DHT22;45954;49.768;8.636;2023-05-07T04:47:11;16.40;99.90
59651;DHT22;45954;49.768;8.636;2023-05-07T04:49:38;16.20;99.90
59651;DHT22;45954;49.768;8.636;2023-05-07T04:52:04;16.20;99.90
59651;DHT22;45954;49.768;8.636;2023-05-07T04:54:30;16.40;99.90
59651;DHT22;45954;49.768;8.636;2023-05-07T04:56:56;16.30;99.90
59651;DHT22;45954;49.768;8.636;2023-05-07T04:59:22;16.50;99.90
59651;DHT22;45954;49.768;8.636;2023-05-07T05:01:48;16.40;99.90
59651;DHT22;45954;49.768;8.636;2023-05-07T05:04:14;16.50;99.90
59651;DHT22;45954;49.768;8.636;2023-05-07T05:06:40;16.30;99.90
59651;DHT22;45954;49.768;8.636;2023-05-07T05:09:06;16.40;99.90
59651;DHT22;45954;49.768;8.636;2023-05-07T05:11:32;16.50;99.90
59651;DHT22;45954;49.768;8.636;2023-05-07T05:13:59;16.70;99.90
59651;DHT22;45954;49.768;8.636;2023-05-07T05:16:26;16.90;99.90
59651;DHT22;45954;49.768;8.636;2023-05-07T05:18:52;16.90;99.90
59651;DHT22;45954;49.768;8.636;2023-05-07T05:21:20;17.00;99.90
59651;DHT22;45954;49.768;8.636;2023-05-07T05:23:46;17.00;99.90
59651;DHT22;45954;49.768;8.636;2023-05-07T05:26:12;16.90;99.90
59651;DHT22;45954;49.768;8.636;2023-05-07T05:28:38;17.00;99.90
59651;DHT22;45954;49.768;8.636;2023-05-07T05:31:05;17.20;99.90
59651;DHT22;45954;49.768;8.636;2023-05-07T05:33:31;17.10;99.90
59651;DHT22;45954;49.768;8.636;2023-05-07T05:35:57;17.10;99.90
59651;DHT22;45954;49.768;8.636;2023-05-07T05:38:22;17.60;99.90
59651;DHT22;45954;49.768;8.636;2023-05-07T05:40:48;17.50;99.90
59651;DHT22;45954;49.768;8.636;2023-05-07T05:43:14;17.70;99.90
59651;DHT22;45954;49.768;8.636;2023-05-07T05:45:40;17.70;99.90
59651;DHT22;45954;49.768;8.636;2023-05-07T05:48:06;17.80;99.90
59651;DHT22;45954;49.768;8.636;2023-05-07T05:50:34;17.80;99.90
59651;DHT22;45954;49.768;8.636;2023-05-07T05:53:02;17.80;99.90
59651;DHT22;45954;49.768;8.636;2023-05-07T05:55:28;17.80;99.90
59651;DHT22;45954;49.768;8.636;2023-05-07T05:57:54;18.00;99.90
59651;DHT22;45954;49.768;8.636;2023-05-07T06:00:21;17.80;99.90
59651;DHT22;45954;49.768;8.636;2023-05-07T06:02:50;17.80;99.90
59651;DHT22;45954;49.768;8.636;2023-05-07T06:05:16;18.10;99.90
59651;DHT22;45954;49.768;8.636;2023-05-07T06:07:42;18.40;99.90
59651;DHT22;45954;49.768;8.636;2023-05-07T06:10:08;18.50;99.90
59651;DHT22;45954;49.768;8.636;2023-05-07T06:12:34;18.80;99.90
59651;DHT22;45954;49.768;8.636;2023-05-07T06:15:00;18.90;99.90
59651;DHT22;45954;49.768;8.636;2023-05-07T06:17:27;18.60;99.90
59651;DHT22;45954;49.768;8.636;2023-05-07T06:19:53;18.90;99.90
59651;DHT22;45954;49.768;8.636;2023-05-07T06:22:19;19.00;99.90
59651;DHT22;45954;49.768;8.636;2023-05-07T06:24:44;19.00;99.90
59651;DHT22;45954;49.768;8.636;2023-05-07T06:27:11;18.80;99.90
59651;DHT22;45954;49.768;8.636;2023-05-07T06:29:37;18.80;99.90
59651;DHT22;45954;49.768;8.636;2023-05-07T06:32:10;18.70;99.90
59651;DHT22;45954;49.768;8.636;2023-05-07T06:34:38;18.50;99.90
59651;DHT22;45954;49.768;8.636;2023-05-07T06:37:05;18.40;99.90
59651;DHT22;45954;49.768;8.636;2023-05-07T06:39:32;18.30;99.90
59651;DHT22;45954;49.768;8.636;2023-05-07T06:41:58;18.40;99.90
59651;DHT22;45954;49.768;8.636;2023-05-07T06:44:25;18.60;99.90
59651;DHT22;45954;49.768;8.636;2023-05-07T06:46:51;18.80;99.90
59651;DHT22;45954;49.768;8.636;2023-05-07T06:49:17;18.50;99.90
59651;DHT22;45954;49.768;8.636;2023-05-07T06:51:43;18.40;99.90
59651;DHT22;45954;49.768;8.636;2023-05-07T06:54:09;18.70;99.90
59651;DHT22;45954;49.768;8.636;2023-05-07T06:56:35;18.80;99.90
59651;DHT22;45954;49.768;8.636;2023-05-07T06:59:02;19.00;99.90
59651;DHT22;45954;49.768;8.636;2023-05-07T07:01:29;19.20;99.90
59651;DHT22;45954;49.768;8.636;2023-05-07T07:03:55;19.30;99.90
59651;DHT22;45954;49.768;8.636;2023-05-07T07:06:21;19.30;99.90
59651;DHT22;45954;49.768;8.636;2023-05-07T07:08:46;19.20;99.90
59651;DHT22;45954;49.768;8.636;2023-05-07T07:11:12;19.20;99.90
59651;DHT22;45954;49.768;8.636;2023-05-07T07:13:38;19.10;99.90
59651;DHT22;45954;49.768;8.636;2023-05-07T07:16:05;19.10;99.90
59651;DHT22;45954;49.768;8.636;2023-05-07T07:18:31;19.10;99.90
59651;DHT22;45954;49.768;8.636;2023-05-07T07:20:57;19.40;99.90
59651;DHT22;45954;49.768;8.636;2023-05-07T07:23:23;19.60;99.90
59651;DHT22;45954;49.768;8.636;2023-05-07T07:25:49;19.80;99.90
59651;DHT22;45954;49.768;8.636;2023-05-07T07:28:15;19.90;99.90
59651;DHT22;45954;49.768;8.636;2023-05-07T07:30:41;19.70;99.90
59651;DHT22;45954;49.768;8.636;2023-05-07T07:33:07;19.60;99.90
59651;DHT22;45954;49.768;8.636;2023-05-07T07:35:33;19.30;99.90
59651;DHT22;45954;49.768;8.636;2023-05-07T07:37:58;19.40;99.90
59651;DHT22;45954;49.768;8.636;2023-05-07T07:40:25;19.40;99.90
59651;DHT22;45954;49.768;8.636;2023-05-07T07:42:51;19.40;99.90
59651;DHT22;45954;49.768;8.636;2023-05-07T07:45:18;19.30;99.90
59651;DHT22;45954;49.768;8.636;2023-05-07T07:47:44;19.40;99.90
59651;DHT22;45954;49.768;8.636;2023-05-07T07:50:10;19.50;99.90
59651;DHT22;45954;49.768;8.636;2023-05-07T07:52:36;19.50;99.90
59651;DHT22;45954;49.768;8.636;2023-05-07T07:55:02;19.60;99.90
59651;DHT22;45954;49.768;8.636;2023-05-07T07:57:30;19.60;99.90
59651;DHT22;45954;49.768;8.636;2023-05-07T07:59:56;19.70;99.90
59651;DHT22;45954;49.768;8.636;2023-05-07T08:02:22;19.70;99.90
59651;DHT22;45954;49.768;8.636;2023-05-07T08:04:47;19.80;99.80
59651;DHT22;45954;49.768;8.636;2023-05-07T08:07:13;19.90;99.70
59651;DHT22;45954;49.768;8.636;2023-05-07T08:09:40;20.20;99.90
59651;DHT22;45954;49.768;8.636;2023-05-07T08:12:07;20.20;99.70
59651;DHT22;45954;49.768;8.636;2023-05-07T08:14:34;20.10;99.30
59651;DHT22;45954;49.768;8.636;2023-05-07T08:17:00;20.30;99.70
59651;DHT22;45954;49.768;8.636;2023-05-07T08:19:26;20.30;99.90
59651;DHT22;45954;49.768;8.636;2023-05-07T08:21:52;20.50;99.10
59651;DHT22;45954;49.768;8.636;2023-05-07T08:24:18;20.50;99.20
59651;DHT22;45954;49.768;8.636;2023-05-07T08:26:44;20.30;99.90
59651;DHT22;45954;49.768;8.636;2023-05-07T08:29:11;20.50;99.20
59651;DHT22;45954;49.768;8.636;2023-05-07T08:31:37;20.40;99.30
59651;DHT22;45954;49.768;8.636;2023-05-07T08:34:05;20.50;99.00
59651;DHT22;45954;49.768;8.636;2023-05-07T08:36:32;20.60;98.70
59651;DHT22;45954;49.768;8.636;2023-05-07T08:38:58;20.50;98.70
59651;DHT22;45954;49.768;8.636;2023-05-07T08:41:24;20.20;99.40
59651;DHT22;45954;49.768;8.636;2023-05-07T08:43:51;20.20;99.60
59651;DHT22;45954;49.768;8.636;2023-05-07T08:46:19;20.10;99.80
59651;DHT22;45954;49.768;8.636;2023-05-07T08:48:49;20.20;99.40
59651;DHT22;45954;49.768;8.636;2023-05-07T08:51:20;20.20;99.50
59651;DHT22;45954;49.768;8.636;2023-05-07T08:53:48;20.30;99.40
59651;DHT22;45954;49.768;8.636;2023-05-07T08:56:15;20.50;98.80
59651;DHT22;45954;49.768;8.636;2023-05-07T08:58:43;20.60;98.70
59651;DHT22;45954;49.768;8.636;2023-05-07T09:01:12;20.40;99.10
59651;DHT22;45954;49.768;8.636;2023-05-07T09:03:40;20.50;98.80
59651;DHT22;45954;49.768;8.636;2023-05-07T09:06:06;20.50;98.90
59651;DHT22;45954;49.768;8.636;2023-05-07T09:08:33;20.60;98.90
59651;DHT22;45954;49.768;8.636;2023-05-07T09:10:59;20.80;98.70
59651;DHT22;45954;49.768;8.636;2023-05-07T09:13:27;20.90;98.80
59651;DHT22;45954;49.768;8.636;2023-05-07T09:15:53;20.90;98.50
59651;DHT22;45954;49.768;8.636;2023-05-07T09:18:19;21.10;98.60
59651;DHT22;45954;49.768;8.636;2023-05-07T09:20:45;21.30;98.70
59651;DHT22;45954;49.768;8.636;2023-05-07T09:23:11;21.40;98.20
59651;DHT22;45954;49.768;8.636;2023-05-07T09:25:37;21.40;98.70
59651;DHT22;45954;49.768;8.636;2023-05-07T09:28:04;21.70;97.90
59651;DHT22;45954;49.768;8.636;2023-05-07T09:30:33;21.80;97.60
59651;DHT22;45954;49.768;8.636;2023-05-07T09:33:01;21.80;97.70
59651;DHT22;45954;49.768;8.636;2023-05-07T09:35:30;21.90;97.10
59651;DHT22;45954;49.768;8.636;2023-05-07T09:37:59;22.00;97.20
59651;DHT22;45954;49.768;8.636;2023-05-07T09:40:28;22.10;97.40
59651;DHT22;45954;49.768;8.636;2023-05-07T09:42:55;21.90;97.90
59651;DHT22;45954;49.768;8.636;2023-05-07T09:45:31;22.10;97.80
59651;DHT22;45954;49.768;8.636;2023-05-07T09:47:58;22.10;97.20
59651;DHT22;45954;49.768;8.636;2023-05-07T09:50:36;22.20;97.50
59651;DHT22;45954;49.768;8.636;2023-05-07T09:53:04;21.90;97.50
59651;DHT22;45954;49.768;8.636;2023-05-07T09:55:31;21.90;97.80
59651;DHT22;45954;49.768;8.636;2023-05-07T09:57:57;22.00;97.80
59651;DHT22;45954;49.768;8.636;2023-05-07T10:00:25;22.00;98.20
59651;DHT22;45954;49.768;8.636;2023-05-07T10:02:52;22.20;98.00
59651;DHT22;45954;49.768;8.636;2023-05-07T10:05:19;22.20;97.60
59651;DHT22;45954;49.768;8.636;2023-05-07T10:07:49;22.30;98.00
59651;DHT22;45954;49.768;8.636;2023-05-07T10:10:17;22.30;97.40
59651;DHT22;45954;49.768;8.636;2023-05-07T10:12:43;22.50;97.80
59651;DHT22;45954;49.768;8.636;2023-05-07T10:15:11;22.60;97.40
59651;DHT22;45954;49.768;8.636;2023-05-07T10:17:38;22.50;97.60
59651;DHT22;45954;49.768;8.636;2023-05-07T10:20:06;22.50;97.50
59651;DHT22;45954;49.768;8.636;2023-05-07T10:22:45;22.30;97.40
59651;DHT22;45954;49.768;8.636;2023-05-07T10:25:28;22.20;97.40
59651;DHT22;45954;49.768;8.636;2023-05-07T10:27:58;22.30;97.40
59651;DHT22;45954;49.768;8.636;2023-05-07T10:33:29;22.30;98.30
59651;DHT22;45954;49.768;8.636;2023-05-07T10:35:59;22.40;97.70
59651;DHT22;45954;49.768;8.636;2023-05-07T10:38:28;22.40;97.60
59651;DHT22;45954;49.768;8.636;2023-05-07T10:40:54;22.70;97.10
59651;DHT22;45954;49.768;8.636;2023-05-07T10:43:20;22.90;97.00
59651;DHT22;45954;49.768;8.636;2023-05-07T10:51:35;23.30;96.20
59651;DHT22;45954;49.768;8.636;2023-05-07T10:56:37;23.40;95.50
59651;DHT22;45954;49.768;8.636;2023-05-07T11:02:09;23.20;96.00
59651;DHT22;45954;49.768;8.636;2023-05-07T11:04:37;23.40;96.00
59651;DHT22;45954;49.768;8.636;2023-05-07T11:09:54;23.60;95.90
59651;DHT22;45954;49.768;8.636;2023-05-07T11:15:15;24.10;94.70
59651;DHT22;45954;49.768;8.636;2023-05-07T11:18:05;24.20;94.70
59651;DHT22;45954;49.768;8.636;2023-05-07T11:20:47;24.40;94.50
59651;DHT22;45954;49.768;8.636;2023-05-07T11:26:03;24.40;94.50
59651;DHT22;45954;49.768;8.636;2023-05-07T11:28:39;24.60;94.50
59651;DHT22;45954;49.768;8.636;2023-05-07T11:31:07;24.50;94.30
59651;DHT22;45954;49.768;8.636;2023-05-07T11:33:35;24.50;94.30
59651;DHT22;45954;49.768;8.636;2023-05-07T11:36:03;24.80;93.70
59651;DHT22;45954;49.768;8.636;2023-05-07T11:38:30;25.00;93.30
59651;DHT22;45954;49.768;8.636;2023-05-07T11:41:00;25.10;93.70
59651;DHT22;45954;49.768;8.636;2023-05-07T11:43:27;25.00;93.70
59651;DHT22;45954;49.768;8.636;2023-05-07T11:45:53;25.10;93.90
59651;DHT22;45954;49.768;8.636;2023-05-07T11:48:21;25.30;93.60
59651;DHT22;45954;49.768;8.636;2023-05-07T11:50:52;25.40;92.80
59651;DHT22;45954;49.768;8.636;2023-05-07T11:53:20;25.60;93.00
59651;DHT22;45954;49.768;8.636;2023-05-07T11:55:46;25.70;93.00
59651;DHT22;45954;49.768;8.636;2023-05-07T11:58:15;25.70;91.80
59651;DHT22;45954;49.768;8.636;2023-05-07T12:00:51;25.70;92.20
59651;DHT22;45954;49.768;8.636;2023-05-07T12:03:18;26.00;92.20
59651;DHT22;45954;49.768;8.636;2023-05-07T12:05:45;26.30;91.90
59651;DHT22;45954;49.768;8.636;2023-05-07T12:08:16;26.20;91.70
59651;DHT22;45954;49.768;8.636;2023-05-07T12:10:43;26.00;91.50
59651;DHT22;45954;49.768;8.636;2023-05-07T12:13:20;26.20;91.30
59651;DHT22;45954;49.768;8.636;2023-05-07T12:15:51;26.60;90.80
59651;DHT22;45954;49.768;8.636;2023-05-07T12:18:18;27.10;90.90
59651;DHT22;45954;49.768;8.636;2023-05-07T12:20:44;27.10;90.40
59651;DHT22;45954;49.768;8.636;2023-05-07T12:23:11;27.00;90.10
59651;DHT22;45954;49.768;8.636;2023-05-07T12:25:39;26.60;90.50
59651;DHT22;45954;49.768;8.636;2023-05-07T12:28:16;26.30;90.70
59651;DHT22;45954;49.768;8.636;2023-05-07T12:30:48;26.30;90.70
59651;DHT22;45954;49.768;8.636;2023-05-07T12:33:20;26.30;90.80
59651;DHT22;45954;49.768;8.636;2023-05-07T12:35:50;26.30;90.90
59651;DHT22;45954;49.768;8.636;2023-05-07T12:38:17;26.20;90.60
59651;DHT22;45954;49.768;8.636;2023-05-07T12:40:46;26.00;90.40
59651;DHT22;45954;49.768;8.636;2023-05-07T12:43:26;25.80;90.60
59651;DHT22;45954;49.768;8.636;2023-05-07T12:45:59;25.70;90.80
59651;DHT22;45954;49.768;8.636;2023-05-07T12:48:27;26.10;90.50
59651;DHT22;45954;49.768;8.636;2023-05-07T12:50:54;26.60;90.60
59651;DHT22;45954;49.768;8.636;2023-05-07T12:53:23;26.70;88.00
59651;DHT22;45954;49.768;8.636;2023-05-07T12:55:52;26.80;89.90
59651;DHT22;45954;49.768;8.636;2023-05-07T12:58:21;27.10;88.70
59651;DHT22;45954;49.768;8.636;2023-05-07T13:00:59;27.60;88.10
59651;DHT22;45954;49.768;8.636;2023-05-07T13:03:31;27.30;87.30
59651;DHT22;45954;49.768;8.636;2023-05-07T13:06:06;27.20;86.80
59651;DHT22;45954;49.768;8.636;2023-05-07T13:08:37;27.10;87.80
59651;DHT22;45954;49.768;8.636;2023-05-07T13:11:12;27.40;88.10
59651;DHT22;45954;49.768;8.636;2023-05-07T13:13:40;27.40;84.60
59651;DHT22;45954;49.768;8.636;2023-05-07T13:16:08;27.20;86.00
59651;DHT22;45954;49.768;8.636;2023-05-07T13:18:37;26.90;84.30
59651;DHT22;45954;49.768;8.636;2023-05-07T13:21:04;27.00;85.60
59651;DHT22;45954;49.768;8.636;2023-05-07T13:23:30;26.70;85.80
59651;DHT22;45954;49.768;8.636;2023-05-07T13:25:56;26.50;87.10
59651;DHT22;45954;49.768;8.636;2023-05-07T13:28:25;26.50;87.80
59651;DHT22;45954;49.768;8.636;2023-05-07T13:30:52;26.20;85.00
59651;DHT22;45954;49.768;8.636;2023-05-07T13:33:18;26.30;86.40
59651;DHT22;45954;49.768;8.636;2023-05-07T13:35:45;26.10;86.90
59651;DHT22;45954;49.768;8.636;2023-05-07T13:38:10;26.40;87.70
59651;DHT22;45954;49.768;8.636;2023-05-07T13:40:36;26.50;87.00
59651;DHT22;45954;49.768;8.636;2023-05-07T13:43:02;26.50;85.70
59651;DHT22;45954;49.768;8.636;2023-05-07T13:45:29;26.20;86.20
59651;DHT22;45954;49.768;8.636;2023-05-07T13:47:55;26.10;87.60
59651;DHT22;45954;49.768;8.636;2023-05-07T13:50:22;26.20;88.10
59651;DHT22;45954;49.768;8.636;2023-05-07T13:52:48;26.10;88.80
59651;DHT22;45954;49.768;8.636;2023-05-07T13:55:21;25.90;88.80
59651;DHT22;45954;49.768;8.636;2023-05-07T13:57:58;25.80;89.70
59651;DHT22;45954;49.768;8.636;2023-05-07T14:00:26;25.90;88.80
59651;DHT22;45954;49.768;8.636;2023-05-07T14:02:53;25.60;87.60
59651;DHT22;45954;49.768;8.636;2023-05-07T14:05:20;25.50;87.60
59651;DHT22;45954;49.768;8.636;2023-05-07T14:07:46;25.30;87.90
59651;DHT22;45954;49.768;8.636;2023-05-07T14:10:12;25.40;87.50
59651;DHT22;45954;49.768;8.636;2023-05-07T14:12:38;25.10;87.50
59651;DHT22;45954;49.768;8.636;2023-05-07T14:15:05;25.10;89.00
59651;DHT22;45954;49.768;8.636;2023-05-07T14:17:31;25.00;88.70
59651;DHT22;45954;49.768;8.636;2023-05-07T14:19:57;24.80;88.70
59651;DHT22;45954;49.768;8.636;2023-05-07T14:22:23;24.60;89.60
59651;DHT22;45954;49.768;8.636;2023-05-07T14:24:50;24.50;89.30
59651;DHT22;45954;49.768;8.636;2023-05-07T14:27:16;24.60;89.40
59651;DHT22;45954;49.768;8.636;2023-05-07T14:29:42;24.60;90.00
59651;DHT22;45954;49.768;8.636;2023-05-07T14:32:08;24.50;89.20
59651;DHT22;45954;49.768;8.636;2023-05-07T14:34:34;24.40;89.20
59651;DHT22;45954;49.768;8.636;2023-05-07T14:37:00;24.30;90.00
59651;DHT22;45954;49.768;8.636;2023-05-07T14:39:27;24.30;89.10
59651;DHT22;45954;49.768;8.636;2023-05-07T14:41:53;24.30;90.40
59651;DHT22;45954;49.768;8.636;2023-05-07T14:44:20;24.20;89.20
59651;DHT22;45954;49.768;8.636;2023-05-07T14:46:46;24.00;89.30
59651;DHT22;45954;49.768;8.636;2023-05-07T14:49:13;23.90;90.10
59651;DHT22;45954;49.768;8.636;2023-05-07T14:51:45;23.80;90.10
59651;DHT22;45954;49.768;8.636;2023-05-07T14:54:13;23.70;90.00
59651;DHT22;45954;49.768;8.636;2023-05-07T14:56:40;23.80;90.10
59651;DHT22;45954;49.768;8.636;2023-05-07T14:59:07;23.80;90.30
59651;DHT22;45954;49.768;8.636;2023-05-07T15:01:35;23.60;90.30
59651;DHT22;45954;49.768;8.636;2023-05-07T15:04:03;23.60;90.10
59651;DHT22;45954;49.768;8.636;2023-05-07T15:06:29;23.60;90.20
59651;DHT22;45954;49.768;8.636;2023-05-07T15:08:56;23.50;90.40
59651;DHT22;45954;49.768;8.636;2023-05-07T15:11:22;23.60;90.00
59651;DHT22;45954;49.768;8.636;2023-05-07T15:13:49;23.60;90.30
59651;DHT22;45954;49.768;8.636;2023-05-07T15:16:15;23.50;90.10
59651;DHT22;45954;49.768;8.636;2023-05-07T15:18:41;23.40;90.20
59651;DHT22;45954;49.768;8.636;2023-05-07T15:21:07;23.30;90.50
59651;DHT22;45954;49.768;8.636;2023-05-07T15:23:33;23.20;91.20
59651;DHT22;45954;49.768;8.636;2023-05-07T15:25:59;23.00;91.10
59651;DHT22;45954;49.768;8.636;2023-05-07T15:28:24;23.10;91.00
59651;DHT22;45954;49.768;8.636;2023-05-07T15:30:50;23.10;91.00
59651;DHT22;45954;49.768;8.636;2023-05-07T15:33:16;22.90;93.20
59651;DHT22;45954;49.768;8.636;2023-05-07T15:35:42;22.80;93.60
59651;DHT22;45954;49.768;8.636;2023-05-07T15:38:08;22.50;95.30
59651;DHT22;45954;49.768;8.636;2023-05-07T15:40:34;22.30;96.60
59651;DHT22;45954;49.768;8.636;2023-05-07T15:43:03;21.70;99.60
59651;DHT22;45954;49.768;8.636;2023-05-07T15:45:29;20.80;99.90
59651;DHT22;45954;49.768;8.636;2023-05-07T15:47:55;20.60;99.90
59651;DHT22;45954;49.768;8.636;2023-05-07T15:50:21;20.00;99.90
59651;DHT22;45954;49.768;8.636;2023-05-07T15:52:47;19.70;99.90